Time;durP1;ratioP1;P1;durP2;ratioP2;P2;SDS_P1;SDS_P2;PMS_P1;PMS_P2;Temp;Humidity;BMP_temperature;BMP_pressure;BME280_temperature;BME280_humidity;BME280_pressure;Samples;Min_cycle;Max_cycle;Signal;HPM_P1;HPM_P2
2022/10/27 00:01:49;;;;;;;19.08;8.85;;;;;;;;;;5000229;28;20147;-50
2022/10/27 00:04:19;;;;;;;16.83;8.70;;;;;;;;;;5007442;28;20078;-50
2022/10/27 00:06:54;;;;;;;13.88;7.70;;;;;;;;;;4992975;28;20057;-49
2022/10/27 00:09:24;;;;;;;18.70;8.02;;;;;;;;;;4993155;28;20042;-51
2022/10/27 00:11:57;;;;;;;15.00;7.47;;;;;;;;;;5004494;28;20089;-53
2022/10/27 00:14:24;;;;;;;16.27;7.32;;;;;;;;;;5008205;28;20046;-52
2022/10/27 00:16:55;;;;;;;15.82;6.68;;;;;;;;;;5003712;28;20050;-49
2022/10/27 00:19:24;;;;;;;19.90;7.90;;;;;;;;;;5013680;28;20469;-51
2022/10/27 00:21:54;;;;;;;14.70;7.57;;;;;;;;;;5012429;28;20066;-51
2022/10/27 00:24:30;;;;;;;15.25;7.50;;;;;;;;;;4999014;28;20070;-50
2022/10/27 00:27:00;;;;;;;19.30;9.35;;;;;;;;;;5012661;28;20064;-53
2022/10/27 00:29:28;;;;;;;16.48;8.38;;;;;;;;;;5003738;28;20034;-49
2022/10/27 00:31:55;;;;;;;20.50;9.95;;;;;;;;;;5012464;28;20049;-51
2022/10/27 00:34:25;;;;;;;16.58;7.18;;;;;;;;;;5013668;28;20084;-50
2022/10/27 00:37:07;;;;;;;13.90;7.13;;;;;;;;;;5003897;28;20057;-50
2022/10/27 00:39:38;;;;;;;18.35;8.57;;;;;;;;;;4998759;28;20593;-50
2022/10/27 00:42:08;;;;;;;17.48;7.93;;;;;;;;;;5024640;28;20049;-50
2022/10/27 00:44:38;;;;;;;17.90;8.80;;;;;;;;;;5013203;28;20103;-50
2022/10/27 00:47:07;;;;;;;14.48;8.32;;;;;;;;;;5012356;28;20089;-52
2022/10/27 00:49:44;;;;;;;18.02;8.40;;;;;;;;;;5012335;28;20081;-50
2022/10/27 00:52:16;;;;;;;19.73;10.18;;;;;;;;;;5006879;28;20082;-50
2022/10/27 00:54:46;;;;;;;19.30;8.88;;;;;;;;;;5024996;28;20443;-53
2022/10/27 00:57:15;;;;;;;17.67;9.00;;;;;;;;;;5012130;28;20053;-50
2022/10/27 00:59:43;;;;;;;17.27;8.45;;;;;;;;;;5004968;28;20486;-48
2022/10/27 01:02:10;;;;;;;17.27;8.40;;;;;;;;;;5012662;28;20053;-53
2022/10/27 01:04:43;;;;;;;14.88;7.43;;;;;;;;;;5014450;28;20061;-50
2022/10/27 01:07:14;;;;;;;18.58;8.73;;;;;;;;;;5023390;28;20140;-49
2022/10/27 01:09:50;;;;;;;17.10;7.72;;;;;;;;;;4996907;28;20396;-49
2022/10/27 01:12:19;;;;;;;19.70;7.93;;;;;;;;;;4997123;28;20057;-50
2022/10/27 01:14:46;;;;;;;16.80;8.05;;;;;;;;;;4998215;28;20054;-50
2022/10/27 01:17:21;;;;;;;20.15;9.18;;;;;;;;;;5013047;28;20061;-50
2022/10/27 01:20:05;;;;;;;21.20;10.48;;;;;;;;;;5016678;28;20586;-49
2022/10/27 01:22:35;;;;;;;23.80;11.93;;;;;;;;;;5017918;28;20490;-50
2022/10/27 01:25:21;;;;;;;25.10;10.52;;;;;;;;;;5024095;28;20053;-51
2022/10/27 01:28:10;;;;;;;30.08;13.52;;;;;;;;;;4996799;28;20047;-51
2022/10/27 01:30:47;;;;;;;23.30;10.48;;;;;;;;;;5003227;28;20394;-50
2022/10/27 01:33:20;;;;;;;24.67;10.23;;;;;;;;;;5007397;28;20066;-50
2022/10/27 01:35:53;;;;;;;24.30;11.25;;;;;;;;;;5011557;28;20058;-50
2022/10/27 01:38:31;;;;;;;26.70;10.77;;;;;;;;;;5007760;28;20062;-50
2022/10/27 01:41:05;;;;;;;22.90;10.15;;;;;;;;;;5007169;28;20042;-49
2022/10/27 01:43:34;;;;;;;24.75;11.80;;;;;;;;;;4995851;28;20058;-50
2022/10/27 01:46:05;;;;;;;24.10;10.90;;;;;;;;;;4996721;28;20109;-50
2022/10/27 01:48:36;;;;;;;22.92;9.15;;;;;;;;;;5015270;28;20057;-50
2022/10/27 01:51:02;;;;;;;18.27;8.95;;;;;;;;;;5015689;28;20053;-50
2022/10/27 01:53:39;;;;;;;23.05;9.27;;;;;;;;;;5006054;28;20057;-50
2022/10/27 01:56:19;;;;;;;24.40;11.13;;;;;;;;;;5003002;28;20065;-49
2022/10/27 01:59:02;;;;;;;17.20;8.90;;;;;;;;;;4998493;28;20061;-49
2022/10/27 02:01:34;;;;;;;21.92;9.00;;;;;;;;;;5001548;28;20050;-54
2022/10/27 02:04:19;;;;;;;25.75;10.82;;;;;;;;;;5008023;28;20050;-49
2022/10/27 02:06:52;;;;;;;19.48;9.80;;;;;;;;;;5009680;28;20053;-53
2022/10/27 02:09:29;;;;;;;21.20;9.45;;;;;;;;;;5004802;28;20701;-49
2022/10/27 02:12:00;;;;;;;19.10;9.20;;;;;;;;;;5002802;28;20434;-48
2022/10/27 02:14:28;;;;;;;20.10;9.43;;;;;;;;;;5024174;28;20100;-49
2022/10/27 02:16:55;;;;;;;18.58;8.82;;;;;;;;;;5030911;28;20061;-49
2022/10/27 02:19:38;;;;;;;18.67;8.68;;;;;;;;;;5016362;28;20056;-51
2022/10/27 02:22:08;;;;;;;20.85;9.27;;;;;;;;;;5014125;28;20076;-53
2022/10/27 02:24:38;;;;;;;18.02;8.38;;;;;;;;;;5011365;28;20045;-50
2022/10/27 02:27:10;;;;;;;21.42;9.27;;;;;;;;;;5029709;28;20457;-52
2022/10/27 02:29:39;;;;;;;15.88;8.55;;;;;;;;;;5019519;28;20082;-54
2022/10/27 02:32:16;;;;;;;34.25;10.18;;;;;;;;;;5009169;28;20054;-50
2022/10/27 02:34:52;;;;;;;60.55;10.15;;;;;;;;;;5012496;28;20046;-52
2022/10/27 02:37:21;;;;;;;18.00;8.65;;;;;;;;;;5013190;28;20142;-53
2022/10/27 02:39:47;;;;;;;29.13;9.45;;;;;;;;;;5004871;28;20050;-51
2022/10/27 02:42:15;;;;;;;28.02;8.90;;;;;;;;;;5000046;28;20057;-53
2022/10/27 02:44:44;;;;;;;26.63;9.35;;;;;;;;;;5016349;28;20072;-54
2022/10/27 02:47:10;;;;;;;21.60;8.63;;;;;;;;;;5008767;28;20529;-54
2022/10/27 02:49:38;;;;;;;18.52;8.52;;;;;;;;;;5016774;28;20046;-50
2022/10/27 02:52:07;;;;;;;15.82;8.55;;;;;;;;;;5020102;28;20045;-50
2022/10/27 02:54:35;;;;;;;12.18;6.50;;;;;;;;;;5015351;28;20501;-50
2022/10/27 02:57:02;;;;;;;16.70;8.15;;;;;;;;;;5029203;28;20045;-50
2022/10/27 02:59:28;;;;;;;12.02;6.82;;;;;;;;;;5023788;28;20483;-50
2022/10/27 03:01:58;;;;;;;16.58;8.50;;;;;;;;;;5013899;28;20065;-50
2022/10/27 03:04:26;;;;;;;16.95;8.48;;;;;;;;;;5006170;28;20395;-50
2022/10/27 03:06:54;;;;;;;18.83;9.05;;;;;;;;;;4994302;28;20058;-52
2022/10/27 03:09:37;;;;;;;19.08;9.82;;;;;;;;;;4995265;28;20050;-53
2022/10/27 03:12:18;;;;;;;16.05;8.73;;;;;;;;;;5006329;28;20054;-48
2022/10/27 03:14:49;;;;;;;18.48;9.07;;;;;;;;;;4994943;28;20051;-51
2022/10/27 03:17:17;;;;;;;14.25;7.75;;;;;;;;;;5008598;28;20531;-50
2022/10/27 03:19:47;;;;;;;16.95;9.40;;;;;;;;;;5020845;28;20057;-53
2022/10/27 03:22:16;;;;;;;18.67;8.38;;;;;;;;;;5022977;28;20141;-51
2022/10/27 03:24:47;;;;;;;18.77;8.70;;;;;;;;;;5007902;28;20061;-53
2022/10/27 03:27:17;;;;;;;17.00;8.52;;;;;;;;;;5034154;28;20110;-52
2022/10/27 03:29:47;;;;;;;17.08;8.15;;;;;;;;;;5021737;28;20046;-49
2022/10/27 03:32:15;;;;;;;16.02;8.30;;;;;;;;;;5007125;28;20053;-53
2022/10/27 03:34:45;;;;;;;21.33;10.07;;;;;;;;;;5018135;28;20140;-49
2022/10/27 03:37:11;;;;;;;21.13;9.15;;;;;;;;;;5023166;28;20061;-50
2022/10/27 03:39:37;;;;;;;43.63;12.43;;;;;;;;;;5004911;28;20124;-53
2022/10/27 03:42:06;;;;;;;25.20;11.15;;;;;;;;;;5009984;28;20065;-53
2022/10/27 03:44:35;;;;;;;30.42;11.50;;;;;;;;;;5025777;28;20374;-50
2022/10/27 03:47:03;;;;;;;25.13;10.18;;;;;;;;;;5013278;28;20383;-50
2022/10/27 03:49:33;;;;;;;28.60;9.43;;;;;;;;;;5004096;28;20458;-50
2022/10/27 03:52:00;;;;;;;25.58;9.43;;;;;;;;;;4994313;28;20061;-50
2022/10/27 03:54:29;;;;;;;54.78;13.07;;;;;;;;;;5023553;28;20068;-51
2022/10/27 03:56:57;;;;;;;88.55;16.38;;;;;;;;;;5032610;28;20046;-51
2022/10/27 03:59:39;;;;;;;64.15;11.50;;;;;;;;;;5018413;28;20058;-49
2022/10/27 04:02:06;;;;;;;79.90;10.75;;;;;;;;;;5027376;28;20046;-49
2022/10/27 04:04:35;;;;;;;100.88;11.13;;;;;;;;;;5013311;28;20058;-51
2022/10/27 04:07:02;;;;;;;59.78;10.75;;;;;;;;;;5016518;28;20049;-51
2022/10/27 04:09:30;;;;;;;42.70;8.68;;;;;;;;;;5022381;28;20569;-49
2022/10/27 04:14:43;;;;;;;91.78;14.23;;;;;;;;;;5013263;28;20049;-53
2022/10/27 04:17:14;;;;;;;74.63;12.57;;;;;;;;;;5012539;28;20074;-53
2022/10/27 04:19:41;;;;;;;72.95;12.18;;;;;;;;;;5012602;28;20054;-50
2022/10/27 04:22:09;;;;;;;136.88;17.23;;;;;;;;;;5013020;28;20057;-52
2022/10/27 04:24:39;;;;;;;84.68;13.63;;;;;;;;;;5012099;28;20565;-53
2022/10/27 04:27:06;;;;;;;80.80;12.50;;;;;;;;;;5013961;28;20700;-49
2022/10/27 04:29:48;;;;;;;127.03;18.65;;;;;;;;;;5032946;28;20096;-52
2022/10/27 04:32:19;;;;;;;83.05;13.60;;;;;;;;;;5028628;28;20064;-50
2022/10/27 04:34:46;;;;;;;77.72;12.85;;;;;;;;;;5011082;28;20535;-53
2022/10/27 04:37:15;;;;;;;63.17;11.68;;;;;;;;;;5010175;28;20450;-53
2022/10/27 04:39:42;;;;;;;61.25;10.88;;;;;;;;;;5007393;28;20475;-51
2022/10/27 04:42:08;;;;;;;26.88;7.68;;;;;;;;;;5000174;28;20053;-49
2022/10/27 04:44:38;;;;;;;31.45;9.43;;;;;;;;;;5002627;28;20052;-49
2022/10/27 04:47:08;;;;;;;16.05;7.07;;;;;;;;;;5003186;28;20136;-51
2022/10/27 04:49:40;;;;;;;17.90;8.43;;;;;;;;;;5012112;28;20056;-52
2022/10/27 04:52:08;;;;;;;28.92;9.00;;;;;;;;;;5021690;28;20046;-52
2022/10/27 04:54:37;;;;;;;41.30;8.45;;;;;;;;;;5034068;28;20056;-51
2022/10/27 04:57:04;;;;;;;50.40;9.85;;;;;;;;;;5026583;28;20157;-51
2022/10/27 04:59:33;;;;;;;46.22;8.75;;;;;;;;;;5013939;28;20714;-50
2022/10/27 05:02:11;;;;;;;44.97;9.52;;;;;;;;;;5039108;28;20124;-51
2022/10/27 05:04:42;;;;;;;36.00;7.93;;;;;;;;;;5026502;28;20089;-53
2022/10/27 05:07:10;;;;;;;42.17;8.93;;;;;;;;;;5033062;28;20073;-55
2022/10/27 05:09:40;;;;;;;20.20;8.13;;;;;;;;;;5007874;28;20050;-54
2022/10/27 05:12:10;;;;;;;19.50;8.45;;;;;;;;;;5002612;28;20053;-51
2022/10/27 05:14:36;;;;;;;19.58;7.35;;;;;;;;;;5009003;28;20060;-51
2022/10/27 05:17:02;;;;;;;19.65;8.82;;;;;;;;;;5015223;28;20070;-52
2022/10/27 05:19:33;;;;;;;18.40;8.27;;;;;;;;;;5022396;28;20447;-51
2022/10/27 05:22:14;;;;;;;10.95;6.20;;;;;;;;;;5031865;28;20049;-53
2022/10/27 05:24:41;;;;;;;14.73;7.72;;;;;;;;;;5018806;28;20056;-51
2022/10/27 05:27:09;;;;;;;11.77;7.05;;;;;;;;;;5034500;28;20049;-53
2022/10/27 05:29:40;;;;;;;13.40;7.13;;;;;;;;;;5030759;28;20050;-51
2022/10/27 05:32:06;;;;;;;15.32;7.18;;;;;;;;;;5032805;28;20050;-54
2022/10/27 05:34:32;;;;;;;15.07;7.35;;;;;;;;;;5018824;28;20057;-49
2022/10/27 05:37:01;;;;;;;12.73;6.55;;;;;;;;;;5008136;28;20062;-51
2022/10/27 05:39:43;;;;;;;14.48;7.47;;;;;;;;;;5005732;28;20483;-55
2022/10/27 05:42:13;;;;;;;15.35;8.10;;;;;;;;;;5019555;28;20107;-52
2022/10/27 05:44:42;;;;;;;20.45;7.80;;;;;;;;;;5038437;28;20402;-51
2022/10/27 05:47:09;;;;;;;19.95;8.57;;;;;;;;;;5037149;28;20057;-53
2022/10/27 05:49:39;;;;;;;14.43;7.63;;;;;;;;;;5000086;28;20082;-52
2022/10/27 05:52:09;;;;;;;19.02;7.47;;;;;;;;;;5005158;28;20050;-50
2022/10/27 05:54:39;;;;;;;20.33;8.70;;;;;;;;;;5010349;28;20437;-49
2022/10/27 05:57:07;;;;;;;14.88;7.18;;;;;;;;;;5005415;28;20069;-51
2022/10/27 05:59:37;;;;;;;12.27;6.63;;;;;;;;;;5014337;28;20057;-49
2022/10/27 06:02:03;;;;;;;14.63;7.20;;;;;;;;;;5010723;28;20050;-49
2022/10/27 06:04:33;;;;;;;13.20;7.38;;;;;;;;;;5010518;28;20128;-50
2022/10/27 06:07:03;;;;;;;14.30;7.43;;;;;;;;;;4999999;28;20081;-51
2022/10/27 06:09:33;;;;;;;16.58;8.05;;;;;;;;;;4999240;28;20065;-48
2022/10/27 06:12:10;;;;;;;16.55;8.20;;;;;;;;;;5011567;28;20045;-48
2022/10/27 06:14:38;;;;;;;16.17;7.43;;;;;;;;;;5006247;28;20049;-49
2022/10/27 06:17:09;;;;;;;15.80;8.20;;;;;;;;;;5008048;28;20050;-48
2022/10/27 06:19:38;;;;;;;14.48;8.13;;;;;;;;;;5018413;28;20050;-48
2022/10/27 06:22:07;;;;;;;16.92;9.15;;;;;;;;;;5013235;28;20049;-48
2022/10/27 06:24:34;;;;;;;18.63;8.60;;;;;;;;;;5009574;28;20456;-48
2022/10/27 06:27:06;;;;;;;15.70;7.80;;;;;;;;;;5020369;28;20045;-48
2022/10/27 06:29:34;;;;;;;19.50;9.85;;;;;;;;;;5001551;28;20077;-49
2022/10/27 06:32:05;;;;;;;19.02;9.65;;;;;;;;;;5009335;28;20041;-47
2022/10/27 06:34:33;;;;;;;20.65;9.25;;;;;;;;;;5006136;28;20042;-47
2022/10/27 06:37:02;;;;;;;15.95;7.85;;;;;;;;;;5003486;28;20049;-47
2022/10/27 06:39:32;;;;;;;15.40;8.02;;;;;;;;;;5011037;28;20112;-47
2022/10/27 06:42:02;;;;;;;18.10;9.10;;;;;;;;;;5000862;28;20476;-45
2022/10/27 06:44:31;;;;;;;15.35;7.57;;;;;;;;;;5015231;28;20045;-44
2022/10/27 06:46:59;;;;;;;20.63;8.68;;;;;;;;;;5004779;28;20379;-47
2022/10/27 06:49:29;;;;;;;16.75;8.93;;;;;;;;;;5013483;28;20053;-49
2022/10/27 06:51:59;;;;;;;16.73;8.23;;;;;;;;;;5006566;28;20597;-48
2022/10/27 06:54:28;;;;;;;16.42;8.45;;;;;;;;;;5013936;28;20115;-50
2022/10/27 06:56:57;;;;;;;17.52;9.20;;;;;;;;;;5030690;28;20053;-47
2022/10/27 06:59:24;;;;;;;14.63;8.20;;;;;;;;;;5022091;28;20088;-50
2022/10/27 07:01:53;;;;;;;16.23;8.30;;;;;;;;;;5015236;28;20041;-49
2022/10/27 07:04:20;;;;;;;18.10;8.75;;;;;;;;;;5008711;28;20058;-49
2022/10/27 07:06:49;;;;;;;18.80;8.65;;;;;;;;;;5009189;28;20045;-49
2022/10/27 07:09:16;;;;;;;18.17;8.98;;;;;;;;;;5000911;28;20080;-50
2022/10/27 07:11:43;;;;;;;21.15;10.40;;;;;;;;;;4998235;28;20046;-49
2022/10/27 07:14:11;;;;;;;19.73;9.63;;;;;;;;;;5014166;28;20057;-49
2022/10/27 07:16:39;;;;;;;19.60;9.70;;;;;;;;;;5012870;28;20046;-49
2022/10/27 07:19:08;;;;;;;18.95;10.18;;;;;;;;;;5007432;28;20639;-50
2022/10/27 07:21:35;;;;;;;17.42;8.90;;;;;;;;;;5012584;28;20459;-48
2022/10/27 07:24:03;;;;;;;16.33;8.63;;;;;;;;;;5001689;28;20045;-50
2022/10/27 07:26:30;;;;;;;20.40;9.52;;;;;;;;;;5016345;28;20065;-48
2022/10/27 07:29:00;;;;;;;15.77;8.75;;;;;;;;;;5014557;28;20061;-49
2022/10/27 07:31:28;;;;;;;18.95;9.25;;;;;;;;;;5014208;28;20057;-51
2022/10/27 07:33:58;;;;;;;12.73;6.50;;;;;;;;;;5003226;28;20054;-51
2022/10/27 07:36:26;;;;;;;12.07;6.13;;;;;;;;;;5004128;28;20054;-49
2022/10/27 07:38:54;;;;;;;14.52;6.95;;;;;;;;;;5002439;28;20077;-49
2022/10/27 07:41:22;;;;;;;19.35;8.15;;;;;;;;;;5008960;28;20042;-49
2022/10/27 07:43:49;;;;;;;16.30;8.40;;;;;;;;;;5000824;28;20058;-51
2022/10/27 07:46:17;;;;;;;16.63;8.40;;;;;;;;;;5013807;28;20064;-48
2022/10/27 07:48:44;;;;;;;14.70;7.55;;;;;;;;;;5014374;28;20073;-48
2022/10/27 07:51:12;;;;;;;16.42;8.80;;;;;;;;;;5008496;28;20046;-49
2022/10/27 07:53:41;;;;;;;17.00;8.38;;;;;;;;;;5013079;28;20041;-48
2022/10/27 07:56:08;;;;;;;14.88;8.07;;;;;;;;;;5007973;28;20050;-47
2022/10/27 07:58:36;;;;;;;18.05;9.05;;;;;;;;;;5012049;28;20093;-46
2022/10/27 08:01:04;;;;;;;18.88;9.30;;;;;;;;;;5006647;28;20046;-47
2022/10/27 08:03:31;;;;;;;17.00;8.98;;;;;;;;;;5010597;28;20050;-48
2022/10/27 08:06:01;;;;;;;18.88;9.73;;;;;;;;;;5014554;28;20077;-47
2022/10/27 08:08:29;;;;;;;20.85;8.93;;;;;;;;;;5013591;28;20058;-50
2022/10/27 08:10:58;;;;;;;18.25;8.70;;;;;;;;;;5013630;28;20073;-48
2022/10/27 08:13:25;;;;;;;16.42;9.30;;;;;;;;;;5012921;28;20065;-48
2022/10/27 08:15:56;;;;;;;13.27;7.53;;;;;;;;;;5012415;28;20048;-49
2022/10/27 08:18:22;;;;;;;14.13;8.48;;;;;;;;;;5021422;28;20060;-49
2022/10/27 08:20:51;;;;;;;14.48;8.20;;;;;;;;;;5023586;28;20451;-48
2022/10/27 08:23:24;;;;;;;16.60;7.90;;;;;;;;;;5012061;28;20050;-49
2022/10/27 08:25:52;;;;;;;14.23;8.07;;;;;;;;;;5004235;28;20042;-49
2022/10/27 08:28:25;;;;;;;13.65;7.72;;;;;;;;;;5012533;28;20054;-48
2022/10/27 08:30:52;;;;;;;20.30;7.38;;;;;;;;;;5013547;28;20053;-48
2022/10/27 08:33:24;;;;;;;10.38;6.25;;;;;;;;;;5012848;28;20049;-49
2022/10/27 08:35:51;;;;;;;12.50;6.90;;;;;;;;;;5013641;28;20049;-49
2022/10/27 08:38:22;;;;;;;13.95;7.22;;;;;;;;;;5012680;28;20050;-48
2022/10/27 08:40:57;;;;;;;13.50;7.45;;;;;;;;;;5012215;28;20050;-48
2022/10/27 08:43:34;;;;;;;11.15;6.18;;;;;;;;;;5003190;28;20066;-49
2022/10/27 08:46:06;;;;;;;12.00;5.88;;;;;;;;;;5011855;28;20054;-48
2022/10/27 08:48:33;;;;;;;9.15;5.53;;;;;;;;;;5002367;28;20074;-47
2022/10/27 08:51:01;;;;;;;10.73;6.03;;;;;;;;;;5006488;28;20074;-48
2022/10/27 08:53:32;;;;;;;14.30;6.65;;;;;;;;;;5003511;28;20053;-48
2022/10/27 08:56:00;;;;;;;13.57;6.97;;;;;;;;;;5009213;28;20109;-48
2022/10/27 08:58:31;;;;;;;13.70;6.65;;;;;;;;;;5025493;28;20118;-48
2022/10/27 09:01:06;;;;;;;14.70;7.50;;;;;;;;;;4997473;28;20053;-48
2022/10/27 09:03:37;;;;;;;10.98;5.47;;;;;;;;;;5017523;28;20382;-48
2022/10/27 09:06:09;;;;;;;12.35;6.80;;;;;;;;;;5013504;28;20049;-48
2022/10/27 09:08:40;;;;;;;9.65;5.20;;;;;;;;;;5016602;28;20367;-47
2022/10/27 09:11:13;;;;;;;10.55;5.70;;;;;;;;;;5007605;28;20065;-49
2022/10/27 09:13:50;;;;;;;10.30;5.85;;;;;;;;;;5009775;28;20076;-48
2022/10/27 09:16:24;;;;;;;10.88;5.68;;;;;;;;;;5014807;28;20058;-50
2022/10/27 09:18:54;;;;;;;10.35;5.85;;;;;;;;;;5016503;28;20049;-49
2022/10/27 09:21:22;;;;;;;9.80;5.35;;;;;;;;;;5007401;28;20153;-50
2022/10/27 09:23:50;;;;;;;7.65;4.05;;;;;;;;;;5009330;28;20049;-52
2022/10/27 09:26:18;;;;;;;7.57;4.13;;;;;;;;;;5017073;28;20049;-51
2022/10/27 09:28:48;;;;;;;7.45;4.03;;;;;;;;;;5016434;28;20467;-51
2022/10/27 09:31:17;;;;;;;12.60;4.97;;;;;;;;;;5014801;28;20050;-50
2022/10/27 09:33:52;;;;;;;7.15;4.28;;;;;;;;;;5003290;28;20057;-49
2022/10/27 09:36:21;;;;;;;7.43;4.07;;;;;;;;;;5007829;28;20050;-50
2022/10/27 09:38:48;;;;;;;9.73;5.00;;;;;;;;;;5006635;28;20511;-48
2022/10/27 09:41:16;;;;;;;9.82;4.72;;;;;;;;;;5017093;28;20062;-50
2022/10/27 09:43:45;;;;;;;9.10;4.80;;;;;;;;;;5002425;28;20423;-51
2022/10/27 09:46:15;;;;;;;11.85;5.22;;;;;;;;;;5015200;28;20178;-50
2022/10/27 09:48:42;;;;;;;10.15;5.10;;;;;;;;;;5011651;28;20395;-52
2022/10/27 09:51:17;;;;;;;7.57;4.50;;;;;;;;;;5017333;28;20049;-51
2022/10/27 09:53:45;;;;;;;8.68;4.78;;;;;;;;;;5007743;28;20057;-51
2022/10/27 09:56:14;;;;;;;10.07;5.20;;;;;;;;;;5010216;28;20056;-54
2022/10/27 09:58:47;;;;;;;7.80;4.13;;;;;;;;;;5015384;28;20054;-50
2022/10/27 10:01:14;;;;;;;7.80;4.80;;;;;;;;;;5006917;28;20054;-49
2022/10/27 10:03:41;;;;;;;8.65;4.63;;;;;;;;;;5017891;28;20133;-49
2022/10/27 10:06:23;;;;;;;8.23;5.10;;;;;;;;;;5016917;28;20045;-49
2022/10/27 10:08:50;;;;;;;7.88;4.28;;;;;;;;;;5012253;28;20060;-50
2022/10/27 10:11:18;;;;;;;8.88;4.80;;;;;;;;;;5011590;28;20056;-53
2022/10/27 10:13:55;;;;;;;8.95;5.35;;;;;;;;;;5015581;28;20056;-49
2022/10/27 10:16:22;;;;;;;11.20;5.20;;;;;;;;;;5015013;28;20046;-53
2022/10/27 10:18:57;;;;;;;10.25;4.93;;;;;;;;;;5013333;28;20056;-55
2022/10/27 10:21:24;;;;;;;10.55;4.22;;;;;;;;;;5018851;28;20049;-50
2022/10/27 10:23:53;;;;;;;7.50;3.72;;;;;;;;;;5008324;28;20563;-54
2022/10/27 10:26:20;;;;;;;6.75;4.18;;;;;;;;;;5014910;28;20370;-50
2022/10/27 10:28:49;;;;;;;8.18;4.53;;;;;;;;;;5015959;28;20050;-50
2022/10/27 10:31:21;;;;;;;10.35;4.60;;;;;;;;;;5016001;28;20104;-48
2022/10/27 10:33:47;;;;;;;6.22;4.32;;;;;;;;;;5018831;28;20064;-49
2022/10/27 10:36:19;;;;;;;8.70;5.15;;;;;;;;;;5015439;28;20048;-51
2022/10/27 10:38:50;;;;;;;11.60;4.90;;;;;;;;;;5016764;28;20057;-51
2022/10/27 10:41:19;;;;;;;8.75;4.90;;;;;;;;;;5014983;28;20054;-51
2022/10/27 10:43:45;;;;;;;11.40;5.32;;;;;;;;;;5009510;28;20062;-51
2022/10/27 10:46:18;;;;;;;9.50;4.57;;;;;;;;;;5003225;28;20060;-51
2022/10/27 10:48:47;;;;;;;8.23;4.68;;;;;;;;;;5015788;28;20056;-49
2022/10/27 10:51:23;;;;;;;7.95;4.63;;;;;;;;;;5003336;28;20050;-50
2022/10/27 10:53:51;;;;;;;9.48;5.28;;;;;;;;;;5017816;28;20375;-55
2022/10/27 10:56:22;;;;;;;10.00;4.95;;;;;;;;;;5017448;28;20045;-51
2022/10/27 10:58:49;;;;;;;9.65;5.72;;;;;;;;;;5002339;28;20133;-52
2022/10/27 11:01:17;;;;;;;8.75;5.03;;;;;;;;;;5018912;28;20046;-52
2022/10/27 11:03:45;;;;;;;7.38;5.05;;;;;;;;;;5009866;28;20046;-53
2022/10/27 11:06:17;;;;;;;6.93;4.50;;;;;;;;;;5011018;28;20060;-51
2022/10/27 11:08:43;;;;;;;8.25;4.60;;;;;;;;;;5017179;28;20051;-50
2022/10/27 11:11:13;;;;;;;10.23;5.82;;;;;;;;;;5021877;28;20072;-51
2022/10/27 11:13:44;;;;;;;9.18;5.07;;;;;;;;;;5002280;28;20049;-51
2022/10/27 11:16:11;;;;;;;6.47;4.60;;;;;;;;;;5006697;28;20509;-52
2022/10/27 11:18:49;;;;;;;9.02;4.93;;;;;;;;;;5016042;28;20050;-51
2022/10/27 11:21:26;;;;;;;10.65;6.10;;;;;;;;;;5020252;28;20046;-52
2022/10/27 11:23:57;;;;;;;9.35;5.25;;;;;;;;;;5014428;28;20050;-55
2022/10/27 11:26:28;;;;;;;8.07;4.53;;;;;;;;;;5013616;28;20053;-52
2022/10/27 11:28:59;;;;;;;8.02;4.78;;;;;;;;;;5009457;28;20129;-51
2022/10/27 11:31:31;;;;;;;10.75;6.05;;;;;;;;;;5008647;28;20060;-50
2022/10/27 11:34:02;;;;;;;9.55;4.70;;;;;;;;;;5007354;28;20046;-55
2022/10/27 11:36:34;;;;;;;9.57;5.57;;;;;;;;;;5000613;28;20052;-51
2022/10/27 11:39:04;;;;;;;13.43;5.95;;;;;;;;;;5006343;28;20045;-53
2022/10/27 11:41:33;;;;;;;12.55;7.05;;;;;;;;;;4998572;28;20483;-51
2022/10/27 11:44:10;;;;;;;12.95;7.15;;;;;;;;;;5011785;28;20042;-54
2022/10/27 11:46:43;;;;;;;13.50;7.55;;;;;;;;;;5002918;28;20060;-51
2022/10/27 11:49:14;;;;;;;15.25;6.55;;;;;;;;;;5007863;28;20053;-53
2022/10/27 11:51:44;;;;;;;10.65;5.88;;;;;;;;;;5015745;28;20047;-50
2022/10/27 11:54:12;;;;;;;15.38;6.28;;;;;;;;;;5016051;28;20050;-51
2022/10/27 11:56:46;;;;;;;15.82;6.88;;;;;;;;;;5003901;28;20128;-51
2022/10/27 11:59:19;;;;;;;14.38;6.55;;;;;;;;;;5018989;28;20065;-53
2022/10/27 12:01:54;;;;;;;17.33;7.45;;;;;;;;;;5014914;28;20387;-50
2022/10/27 12:04:25;;;;;;;16.42;7.80;;;;;;;;;;5014162;28;20045;-51
2022/10/27 12:06:58;;;;;;;11.70;6.78;;;;;;;;;;5005274;28;20132;-52
2022/10/27 12:09:33;;;;;;;11.35;6.85;;;;;;;;;;5002363;28;20663;-51
2022/10/27 12:12:05;;;;;;;11.27;6.40;;;;;;;;;;5005219;28;20378;-51
2022/10/27 12:14:37;;;;;;;12.25;5.72;;;;;;;;;;5005416;28;20045;-55
2022/10/27 12:17:07;;;;;;;12.68;7.65;;;;;;;;;;5005174;28;20072;-52
2022/10/27 12:19:37;;;;;;;13.40;6.82;;;;;;;;;;4993432;28;20069;-50
2022/10/27 12:22:06;;;;;;;12.60;6.60;;;;;;;;;;4997752;28;20057;-49
2022/10/27 12:24:34;;;;;;;12.88;6.50;;;;;;;;;;4994258;28;20462;-49
2022/10/27 12:27:06;;;;;;;13.80;7.90;;;;;;;;;;5002832;28;20046;-49
2022/10/27 12:29:35;;;;;;;11.02;6.15;;;;;;;;;;5012890;28;20050;-49
2022/10/27 12:32:06;;;;;;;13.30;5.95;;;;;;;;;;5005844;28;20064;-50
2022/10/27 12:34:35;;;;;;;10.82;6.18;;;;;;;;;;5001173;28;20038;-48
2022/10/27 12:37:05;;;;;;;9.48;6.05;;;;;;;;;;5001443;28;20046;-52
2022/10/27 12:39:33;;;;;;;14.70;6.57;;;;;;;;;;5012706;28;20531;-50
2022/10/27 12:42:04;;;;;;;13.02;7.20;;;;;;;;;;4996631;28;20054;-50
2022/10/27 12:44:34;;;;;;;9.35;5.50;;;;;;;;;;4996716;28;20043;-53
2022/10/27 12:47:08;;;;;;;14.38;6.00;;;;;;;;;;4994539;28;20353;-51
2022/10/27 12:49:38;;;;;;;15.38;6.45;;;;;;;;;;5009692;28;20048;-48
2022/10/27 12:52:08;;;;;;;13.35;5.93;;;;;;;;;;4998948;28;20053;-48
2022/10/27 12:54:41;;;;;;;8.15;5.07;;;;;;;;;;5008885;28;20042;-48
2022/10/27 12:57:14;;;;;;;11.32;5.65;;;;;;;;;;5010924;28;20054;-48
2022/10/27 12:59:46;;;;;;;10.68;6.13;;;;;;;;;;4998302;28;20141;-49
2022/10/27 13:02:14;;;;;;;9.95;5.13;;;;;;;;;;4998843;28;20052;-49
2022/10/27 13:04:58;;;;;;;11.60;5.43;;;;;;;;;;4996908;28;20053;-49
2022/10/27 13:07:32;;;;;;;13.15;5.82;;;;;;;;;;4994963;28;20387;-50
2022/10/27 13:10:13;;;;;;;10.07;4.72;;;;;;;;;;4999056;28;20045;-49
2022/10/27 13:12:52;;;;;;;8.73;5.00;;;;;;;;;;4999111;28;20064;-49
2022/10/27 13:15:31;;;;;;;11.07;4.90;;;;;;;;;;5012470;28;20060;-48
2022/10/27 13:18:06;;;;;;;13.45;6.35;;;;;;;;;;5016392;28;20064;-47
2022/10/27 13:20:44;;;;;;;8.07;4.40;;;;;;;;;;5013433;28;20093;-48
2022/10/27 13:23:17;;;;;;;12.18;5.47;;;;;;;;;;5004537;28;20073;-47
2022/10/27 13:25:47;;;;;;;15.95;6.38;;;;;;;;;;5014413;28;20046;-47
2022/10/27 13:28:17;;;;;;;10.20;5.03;;;;;;;;;;5012029;28;20064;-48
2022/10/27 13:30:44;;;;;;;10.57;5.65;;;;;;;;;;5010468;28;20042;-47
2022/10/27 13:33:25;;;;;;;10.13;5.80;;;;;;;;;;5015503;28;20485;-45
2022/10/27 13:36:12;;;;;;;13.38;5.35;;;;;;;;;;5013394;28;20121;-46
2022/10/27 13:38:39;;;;;;;13.90;5.78;;;;;;;;;;5011909;28;20046;-48
2022/10/27 13:41:05;;;;;;;10.10;4.97;;;;;;;;;;4998965;28;20042;-48
2022/10/27 13:43:49;;;;;;;9.35;5.50;;;;;;;;;;5008733;28;20060;-49
2022/10/27 13:46:16;;;;;;;10.00;5.43;;;;;;;;;;4997565;28;20046;-48
2022/10/27 13:48:46;;;;;;;6.82;4.30;;;;;;;;;;5004944;28;20045;-48
2022/10/27 13:51:31;;;;;;;9.38;4.30;;;;;;;;;;5014544;28;20050;-48
2022/10/27 13:53:59;;;;;;;13.82;6.15;;;;;;;;;;5002545;28;20383;-47
2022/10/27 13:56:44;;;;;;;14.10;6.60;;;;;;;;;;5002484;28;20046;-47
2022/10/27 13:59:15;;;;;;;14.40;6.03;;;;;;;;;;5004698;28;20058;-47
2022/10/27 14:01:45;;;;;;;10.20;4.70;;;;;;;;;;5021968;28;20144;-47
2022/10/27 14:04:29;;;;;;;12.70;5.90;;;;;;;;;;5023544;28;20069;-48
2022/10/27 14:07:01;;;;;;;15.40;5.47;;;;;;;;;;5013991;28;20049;-47
2022/10/27 14:09:38;;;;;;;9.35;5.00;;;;;;;;;;5010619;28;20054;-48
2022/10/27 14:12:06;;;;;;;9.77;5.57;;;;;;;;;;5012314;28;20065;-48
2022/10/27 14:14:34;;;;;;;18.33;8.85;;;;;;;;;;5015069;28;20046;-49
2022/10/27 14:17:06;;;;;;;17.88;7.43;;;;;;;;;;5016004;28;20046;-52
2022/10/27 14:19:33;;;;;;;17.00;6.93;;;;;;;;;;5014461;28;20056;-48
2022/10/27 14:21:59;;;;;;;12.13;6.50;;;;;;;;;;5015098;28;20049;-49
2022/10/27 14:24:27;;;;;;;14.75;6.88;;;;;;;;;;5016681;28;20364;-52
2022/10/27 14:26:58;;;;;;;9.57;5.15;;;;;;;;;;5013563;28;20464;-48
2022/10/27 14:29:25;;;;;;;10.10;5.03;;;;;;;;;;5014048;28;20132;-47
2022/10/27 14:31:51;;;;;;;8.95;4.57;;;;;;;;;;5013376;28;20048;-47
2022/10/27 14:34:21;;;;;;;10.25;5.05;;;;;;;;;;5006063;28;20056;-47
2022/10/27 14:36:48;;;;;;;13.43;6.40;;;;;;;;;;5007017;28;20062;-50
2022/10/27 14:39:23;;;;;;;13.15;6.22;;;;;;;;;;5009523;28;20053;-50
2022/10/27 14:41:50;;;;;;;16.30;6.30;;;;;;;;;;5008067;28;20046;-54
2022/10/27 14:44:25;;;;;;;8.38;4.43;;;;;;;;;;5003641;28;20053;-50
2022/10/27 14:46:52;;;;;;;8.80;5.53;;;;;;;;;;5001499;28;20131;-50
2022/10/27 14:49:22;;;;;;;12.07;6.90;;;;;;;;;;5006255;28;20049;-50
2022/10/27 14:51:48;;;;;;;14.40;7.45;;;;;;;;;;5015155;28;20054;-49
2022/10/27 14:54:17;;;;;;;14.90;7.10;;;;;;;;;;5001222;28;20418;-52